Time;durP1;ratioP1;P1;durP2;ratioP2;P2;SDS_P1;SDS_P2;PMS_P1;PMS_P2;Temp;Humidity;BMP_temperature;BMP_pressure;BME280_temperature;BME280_humidity;BME280_pressure;Samples;Min_cycle;Max_cycle;Signal;HPM_P1;HPM_P2
2021/04/04 00:01:20;;;;;;;12.27;4.97;;;;;;;2.03;71.29;100800.56;1790824;77;25776;-79
2021/04/04 00:03:48;;;;;;;11.48;5.08;;;;;;;2.01;71.30;100804.98;1796695;77;25846;-79
2021/04/04 00:06:14;;;;;;;14.15;5.50;;;;;;;1.94;71.28;100802.45;1797241;78;26556;-79
2021/04/04 00:08:40;;;;;;;10.67;4.57;;;;;;;1.90;71.45;100810.83;1794351;78;35150;-79
2021/04/04 00:11:06;;;;;;;13.97;5.03;;;;;;;1.89;71.81;100804.03;1796689;77;25671;-79
2021/04/04 00:13:32;;;;;;;14.47;4.53;;;;;;;1.87;71.47;100807.16;1795891;77;25770;-79
2021/04/04 00:15:58;;;;;;;13.88;5.28;;;;;;;1.85;71.46;100804.31;1766090;79;25727;-79
2021/04/04 00:18:24;;;;;;;18.83;6.00;;;;;;;1.78;71.86;100800.84;1796512;77;31882;-79
2021/04/04 00:20:50;;;;;;;18.40;6.33;;;;;;;1.78;71.77;100811.62;1798566;77;34874;-79
2021/04/04 00:23:16;;;;;;;23.12;6.15;;;;;;;1.75;71.89;100807.48;1799025;77;25794;-79
2021/04/04 00:25:42;;;;;;;25.10;8.40;;;;;;;1.73;72.22;100805.46;1798346;77;25812;-79
2021/04/04 00:28:08;;;;;;;21.10;7.23;;;;;;;1.68;72.14;100804.10;1820417;77;25808;-79
2021/04/04 00:30:34;;;;;;;15.37;5.80;;;;;;;1.65;72.13;100803.01;1818624;77;31701;-79
2021/04/04 00:33:00;;;;;;;14.53;5.90;;;;;;;1.63;72.11;100803.56;1768569;78;35007;-79
2021/04/04 00:35:26;;;;;;;14.63;5.33;;;;;;;1.60;72.12;100800.71;1768421;79;25808;-79
2021/04/04 00:37:54;;;;;;;12.30;5.08;;;;;;;1.61;72.21;100793.37;1744286;79;25739;-79
2021/04/04 00:40:25;;;;;;;10.43;5.22;;;;;;;1.58;72.01;100799.16;1767203;79;26692;-79
2021/04/04 00:42:51;;;;;;;13.45;5.42;;;;;;;1.56;72.23;100803.13;1766884;79;25639;-79
2021/04/04 00:45:21;;;;;;;10.30;5.05;;;;;;;1.57;72.28;100799.63;1776317;77;25832;-79
2021/04/04 00:47:48;;;;;;;14.15;5.55;;;;;;;1.57;72.28;100799.63;1795830;77;25734;-79
2021/04/04 00:50:17;;;;;;;15.63;6.15;;;;;;;1.54;72.26;100799.81;1797571;77;25311;-79
2021/04/04 00:52:45;;;;;;;10.95;5.35;;;;;;;1.54;72.26;100799.81;1797287;77;25811;-79
2021/04/04 00:55:13;;;;;;;13.40;5.75;;;;;;;1.51;72.39;100804.70;1765394;79;25644;-79
2021/04/04 00:57:41;;;;;;;14.75;5.95;;;;;;;1.49;72.58;100803.95;1769220;79;25766;-79
2021/04/04 01:00:11;;;;;;;11.78;5.00;;;;;;;1.45;72.53;100805.09;1797890;77;26505;-79
2021/04/04 01:02:38;;;;;;;13.70;6.17;;;;;;;1.43;72.72;100818.52;1796302;77;25635;-79
2021/04/04 01:05:08;;;;;;;12.90;5.20;;;;;;;1.43;72.72;100818.52;1795791;78;25838;-79
2021/04/04 01:07:35;;;;;;;10.58;5.28;;;;;;;1.45;73.14;100822.30;1797290;77;26589;-79
2021/04/04 01:10:07;;;;;;;14.85;5.55;;;;;;;1.40;73.22;100817.42;1763687;79;25676;-79
2021/04/04 01:12:54;;;;;;;14.35;5.85;;;;;;;1.39;73.46;100817.06;1761273;79;25767;-79
2021/04/04 01:15:25;;;;;;;12.33;5.33;;;;;;;1.39;73.05;100821.36;1686235;83;25775;-79
2021/04/04 01:17:55;;;;;;;12.82;4.47;;;;;;;1.20;73.60;100790.77;1687276;83;25892;-79
2021/04/04 01:20:35;;;;;;;10.68;4.58;;;;;;;1.30;74.28;100810.70;1686911;83;25773;-80
2021/04/04 01:23:23;;;;;;;;;;;;;;;1.39;74.22;100825.22;1689491;83;25847;-80
2021/04/04 01:26:15;;;;;;;11.20;4.50;;;;;;;1.36;74.34;100827.52;1686414;83;25813;-79
2021/04/04 01:28:43;;;;;;;10.03;4.75;;;;;;;1.39;74.52;100823.50;1686584;83;25353;-79
2021/04/04 01:31:11;;;;;;;11.73;4.92;;;;;;;1.43;74.65;100818.98;1687447;83;26552;-79
2021/04/04 01:33:39;;;;;;;9.75;4.58;;;;;;;1.42;74.76;100817.30;1686986;83;25733;-79
2021/04/04 01:36:11;;;;;;;9.98;4.75;;;;;;;1.45;74.61;100819.25;1685657;83;25841;-79
2021/04/04 01:38:41;;;;;;;11.05;4.30;;;;;;;1.49;74.56;100813.44;1686436;83;25929;-79
2021/04/04 01:41:26;;;;;;;;;;;;;;;1.52;74.93;100819.69;1728377;81;25904;-79
2021/04/04 01:43:59;;;;;;;13.40;4.95;;;;;;;1.51;74.85;100812.42;1717139;81;26359;-80
2021/04/04 01:46:26;;;;;;;13.32;4.87;;;;;;;1.44;74.93;100802.13;1677557;83;25736;-79
2021/04/04 01:48:54;;;;;;;12.43;5.25;;;;;;;1.51;74.90;100816.29;1727976;81;25817;-79
2021/04/04 01:51:22;;;;;;;9.25;4.58;;;;;;;1.55;74.86;100818.20;1741076;77;25854;-79
2021/04/04 01:53:50;;;;;;;10.53;4.35;;;;;;;1.59;75.04;100820.97;1793189;77;25820;-79
2021/04/04 01:56:17;;;;;;;10.00;4.17;;;;;;;1.63;74.94;100825.45;1793683;77;26444;-79
2021/04/04 01:58:44;;;;;;;8.15;4.25;;;;;;;1.63;75.05;100819.84;1795192;77;26508;-79
2021/04/04 02:01:12;;;;;;;10.95;5.35;;;;;;;1.65;75.06;100819.29;1794347;78;25845;-79
2021/04/04 02:03:40;;;;;;;9.48;5.10;;;;;;;1.70;74.92;100817.72;1794388;77;25612;-79
2021/04/04 02:06:06;;;;;;;8.85;4.37;;;;;;;1.70;74.92;100817.72;1797922;77;25739;-79
2021/04/04 02:08:35;;;;;;;10.03;4.42;;;;;;;1.61;75.11;100794.66;1797543;77;25724;-75
2021/04/04 02:11:03;;;;;;;11.70;4.60;;;;;;;1.74;75.19;100816.59;1791410;77;25806;-76
2021/04/04 02:13:30;;;;;;;11.05;4.45;;;;;;;1.71;75.19;100825.34;1793364;78;25915;-75
2021/04/04 02:15:59;;;;;;;11.15;4.90;;;;;;;1.68;75.10;100822.95;1794721;78;25686;-76
2021/04/04 02:18:26;;;;;;;10.88;4.62;;;;;;;1.68;75.25;100828.58;1795744;77;25779;-75
2021/04/04 02:20:54;;;;;;;10.38;4.55;;;;;;;1.70;75.41;100824.16;1796059;77;26047;-75
2021/04/04 02:23:22;;;;;;;12.20;5.08;;;;;;;1.70;75.41;100824.16;1794475;77;25777;-79
2021/04/04 02:25:54;;;;;;;9.25;5.72;;;;;;;1.71;75.76;100821.94;1795230;77;25638;-79
2021/04/04 02:28:22;;;;;;;19.00;7.70;;;;;;;1.69;75.63;100822.48;1765291;78;25753;-79
2021/04/04 02:30:49;;;;;;;13.53;6.00;;;;;;;1.64;75.58;100819.41;1795821;77;25768;-79
2021/04/04 02:33:29;;;;;;;15.00;5.72;;;;;;;1.65;75.63;100820.58;1794509;77;26437;-79
2021/04/04 02:36:06;;;;;;;11.05;5.75;;;;;;;1.69;75.77;100825.06;1794490;77;25794;-79
2021/04/04 02:38:40;;;;;;;10.68;4.95;;;;;;;1.69;75.77;100825.06;1777062;78;25762;-79
2021/04/04 02:41:09;;;;;;;12.90;5.00;;;;;;;1.69;75.70;100821.20;1794044;77;25994;-79
2021/04/04 02:43:39;;;;;;;11.15;4.60;;;;;;;1.61;75.17;100803.67;1795264;77;25746;-79
2021/04/04 02:46:13;;;;;;;10.68;5.25;;;;;;;1.61;75.17;100803.67;1762117;79;25805;-79
2021/04/04 02:48:44;;;;;;;8.68;4.97;;;;;;;1.75;75.48;100824.23;1765810;79;25773;-79
2021/04/04 02:51:14;;;;;;;8.98;5.25;;;;;;;1.72;75.56;100828.30;1765237;79;25691;-79
2021/04/04 02:53:45;;;;;;;9.55;5.08;;;;;;;1.72;75.53;100830.88;1771448;79;25789;-79
2021/04/04 02:56:15;;;;;;;8.20;3.90;;;;;;;1.63;75.37;100806.14;1796376;77;26247;-79
2021/04/04 02:58:44;;;;;;;10.93;4.50;;;;;;;1.75;75.55;100831.97;1796929;78;26315;-79
2021/04/04 03:01:12;;;;;;;10.63;5.30;;;;;;;1.73;75.64;100835.56;1774555;78;25671;-75
2021/04/04 03:03:40;;;;;;;9.33;4.85;;;;;;;1.71;75.69;100838.69;1797163;77;25650;-75
2021/04/04 03:06:09;;;;;;;10.38;4.15;;;;;;;1.62;75.61;100837.52;1796725;77;25640;-75
2021/04/04 03:08:43;;;;;;;9.65;5.00;;;;;;;1.59;75.55;100835.14;1794615;77;25304;-75
2021/04/04 03:11:11;;;;;;;10.35;4.55;;;;;;;1.61;75.73;100835.88;1795698;77;25780;-74
2021/04/04 03:13:38;;;;;;;11.28;5.65;;;;;;;1.66;75.84;100838.97;1795368;77;25816;-75
2021/04/04 03:16:06;;;;;;;8.38;4.80;;;;;;;1.66;75.84;100838.97;1794247;77;26583;-75
2021/04/04 03:18:34;;;;;;;11.35;4.95;;;;;;;1.70;75.59;100839.16;1796650;77;25797;-75
2021/04/04 03:21:05;;;;;;;8.73;4.58;;;;;;;1.72;76.16;100842.47;1794765;77;25710;-75
2021/04/04 03:23:31;;;;;;;12.05;4.50;;;;;;;1.72;76.16;100842.47;1795053;77;25701;-75
2021/04/04 03:25:58;;;;;;;11.00;4.00;;;;;;;1.72;75.69;100850.67;1797419;77;25792;-75
2021/04/04 03:28:25;;;;;;;8.48;4.15;;;;;;;1.70;75.79;100855.91;1774379;77;25694;-75
2021/04/04 03:30:51;;;;;;;8.70;4.40;;;;;;;1.73;75.93;100856.17;1795134;78;25604;-75
2021/04/04 03:33:21;;;;;;;11.22;5.30;;;;;;;1.74;75.75;100853.48;1798874;77;25786;-75
2021/04/04 03:35:51;;;;;;;9.60;4.42;;;;;;;1.77;75.79;100853.75;1768016;79;26620;-75
2021/04/04 03:38:19;;;;;;;;;;;;;;;1.80;75.79;100849.73;1783055;78;25657;-75
2021/04/04 03:40:45;;;;;;;10.55;3.87;;;;;;;1.67;75.82;100827.75;1779758;78;25879;-74
2021/04/04 03:43:22;;;;;;;8.00;4.03;;;;;;;1.67;75.82;100827.75;1778852;78;25743;-75
2021/04/04 03:46:01;;;;;;;11.53;4.53;;;;;;;1.75;75.85;100850.00;1778573;78;25387;-75
2021/04/04 03:48:29;;;;;;;9.80;4.45;;;;;;;1.78;75.60;100851.56;1777540;78;25714;-75
2021/04/04 03:50:57;;;;;;;7.45;4.00;;;;;;;1.66;75.61;100836.86;1781921;78;25766;-75
2021/04/04 03:53:26;;;;;;;9.00;4.08;;;;;;;1.66;75.61;100836.86;1779939;78;25778;-79
2021/04/04 03:55:59;;;;;;;8.73;4.75;;;;;;;1.74;76.04;100853.95;1779091;78;25845;-79
2021/04/04 03:58:28;;;;;;;8.63;4.72;;;;;;;1.70;75.98;100849.46;1778361;78;25266;-79
2021/04/04 04:00:55;;;;;;;12.40;4.42;;;;;;;1.58;76.14;100833.47;1779837;78;25831;-79
2021/04/04 04:03:22;;;;;;;9.95;4.75;;;;;;;1.58;76.14;100833.47;1783597;78;25706;-78
2021/04/04 04:05:49;;;;;;;7.22;4.17;;;;;;;1.60;76.15;100830.34;1779203;78;25681;-78
2021/04/04 04:08:17;;;;;;;12.33;5.20;;;;;;;1.73;76.09;100859.57;1821425;77;25268;-78
2021/04/04 04:10:44;;;;;;;14.55;5.45;;;;;;;1.75;76.09;100858.20;1748719;79;25339;-78
2021/04/04 04:13:11;;;;;;;10.30;5.12;;;;;;;1.74;76.05;100860.39;1765602;79;25882;-78
2021/04/04 04:15:37;;;;;;;11.08;5.42;;;;;;;1.67;76.13;100839.34;1768257;79;25727;-78
2021/04/04 04:18:06;;;;;;;10.20;4.60;;;;;;;1.76;76.19;100843.92;1744496;79;25754;-78
2021/04/04 04:20:32;;;;;;;11.28;4.97;;;;;;;1.86;76.10;100862.22;1764427;79;25876;-78
2021/04/04 04:23:02;;;;;;;11.75;5.10;;;;;;;1.86;76.11;100860.11;1796358;77;26103;-78
2021/04/04 04:25:30;;;;;;;10.32;5.05;;;;;;;1.88;76.12;100862.10;1796598;77;25777;-78
2021/04/04 04:27:58;;;;;;;14.30;6.25;;;;;;;1.90;76.08;100860.27;1775995;78;25416;-78
2021/04/04 04:30:25;;;;;;;12.35;5.28;;;;;;;2.00;76.03;100860.87;1796079;77;26546;-78
2021/04/04 04:32:55;;;;;;;10.40;5.33;;;;;;;2.00;76.03;100863.45;1796308;77;25694;-78
2021/04/04 04:35:22;;;;;;;;;;;;;;;1.89;75.93;100845.27;1798678;77;25758;-78
2021/04/04 04:37:49;;;;;;;15.63;6.45;;;;;;;1.86;76.34;100844.65;1817668;77;25868;-78
2021/04/04 04:40:17;;;;;;;13.55;6.60;;;;;;;1.86;76.34;100844.65;1744058;79;25910;-78
2021/04/04 04:42:47;;;;;;;12.75;6.78;;;;;;;1.81;76.20;100837.66;1766300;79;25758;-78
2021/04/04 04:45:33;;;;;;;11.55;6.75;;;;;;;1.91;76.23;100860.63;1765930;79;25759;-78
2021/04/04 04:48:00;;;;;;;16.70;7.53;;;;;;;1.82;76.93;100854.30;1767364;79;26050;-78
2021/04/04 04:50:27;;;;;;;12.37;7.12;;;;;;;1.82;76.93;100854.30;1744770;79;25805;-78
2021/04/04 04:52:55;;;;;;;19.98;8.93;;;;;;;1.78;76.64;100857.54;1767566;79;25713;-78
2021/04/04 04:55:23;;;;;;;16.65;8.28;;;;;;;1.73;76.88;100855.70;1798023;77;25698;-78
2021/04/04 04:57:49;;;;;;;16.55;8.73;;;;;;;1.55;77.51;100835.80;1798911;77;25826;-78
2021/04/04 05:00:17;;;;;;;15.93;8.75;;;;;;;1.65;77.29;100857.11;1795880;77;25599;-78
2021/04/04 05:02:44;;;;;;;15.55;9.35;;;;;;;1.65;77.29;100857.11;1798480;77;25934;-78
2021/04/04 05:05:12;;;;;;;17.42;7.87;;;;;;;1.64;77.14;100858.05;1798095;77;25933;-78
2021/04/04 05:07:41;;;;;;;17.65;8.53;;;;;;;1.62;77.34;100859.42;1794630;77;26580;-78
2021/04/04 05:10:10;;;;;;;15.35;7.65;;;;;;;1.63;77.37;100857.66;1798477;77;25892;-78
2021/04/04 05:12:45;;;;;;;12.58;7.62;;;;;;;1.62;77.39;100863.75;1796122;77;25650;-78
2021/04/04 05:15:12;;;;;;;15.45;7.60;;;;;;;1.49;77.62;100842.59;1796302;77;25713;-79
2021/04/04 05:17:39;;;;;;;11.80;7.37;;;;;;;1.65;77.73;100863.09;1779667;77;25849;-79
2021/04/04 05:20:09;;;;;;;19.95;8.05;;;;;;;1.65;77.73;100863.09;1796222;77;25691;-79
2021/04/04 05:22:38;;;;;;;12.30;7.00;;;;;;;1.67;77.55;100866.88;1797532;78;25751;-79
2021/04/04 05:25:05;;;;;;;12.95;6.85;;;;;;;1.62;77.94;100868.91;1796540;77;25964;-79
2021/04/04 05:27:31;;;;;;;10.48;6.83;;;;;;;1.57;77.81;100869.64;1777628;78;26602;-79
2021/04/04 05:30:01;;;;;;;12.37;6.17;;;;;;;1.48;77.79;100859.45;1797026;77;44105;-79
2021/04/04 05:32:27;;;;;;;9.45;5.08;;;;;;;1.56;77.80;100868.82;1798228;77;25819;-79
2021/04/04 05:34:54;;;;;;;11.10;5.75;;;;;;;1.59;78.18;100875.06;1797553;77;25757;-79
2021/04/04 05:37:19;;;;;;;13.08;6.60;;;;;;;1.45;78.50;100861.75;1796707;77;25837;-79
2021/04/04 05:39:45;;;;;;;10.17;7.03;;;;;;;1.45;78.50;100861.75;1765740;79;26897;-79
2021/04/04 05:42:12;;;;;;;18.33;7.23;;;;;;;1.57;78.01;100891.54;1774265;79;31377;-79
2021/04/04 05:44:45;;;;;;;12.88;5.95;;;;;;;1.59;78.04;100890.52;1797574;77;25780;-79
2021/04/04 05:47:40;;;;;;;11.40;5.78;;;;;;;1.51;78.13;100876.00;1795255;77;25718;-79
2021/04/04 05:50:31;;;;;;;11.88;5.75;;;;;;;1.51;78.13;100876.00;1794973;77;25686;-79
2021/04/04 05:53:12;;;;;;;11.55;5.80;;;;;;;1.61;78.22;100892.98;1764397;79;25678;-78
2021/04/04 05:56:05;;;;;;;12.25;6.62;;;;;;;1.73;77.96;100890.96;1799846;77;25651;-79
2021/04/04 05:58:52;;;;;;;12.37;6.33;;;;;;;1.73;77.96;100890.96;1797768;77;25534;-80
2021/04/04 06:01:35;;;;;;;11.45;5.95;;;;;;;1.79;78.01;100894.44;1795874;77;25734;-80
2021/04/04 06:04:41;;;;;;;11.25;5.87;;;;;;;1.81;77.88;100900.33;1798108;77;25728;-78
2021/04/04 06:07:33;;;;;;;11.78;6.00;;;;;;;1.77;77.79;100902.28;1801322;77;26700;-80
2021/04/04 06:10:07;;;;;;;10.90;4.92;;;;;;;1.74;77.72;100899.87;1797088;77;25783;-79
2021/04/04 06:12:58;;;;;;;9.95;5.67;;;;;;;1.80;77.79;100893.53;1795520;77;26325;-79
2021/04/04 06:15:55;;;;;;;10.93;6.30;;;;;;;1.78;77.71;100894.09;1772879;79;25836;-78
2021/04/04 06:18:55;;;;;;;11.10;7.60;;;;;;;1.78;77.73;100897.48;1775756;79;25661;-79
2021/04/04 06:21:32;;;;;;;17.70;9.15;;;;;;;1.85;77.66;100899.67;1766355;79;26397;-79
2021/04/04 06:24:42;;;;;;;17.98;9.75;;;;;;;1.72;77.44;100890.61;1778587;78;26290;-79
2021/04/04 06:27:41;;;;;;;17.15;10.38;;;;;;;1.89;77.65;100910.17;1777189;78;25418;-78
2021/04/04 06:30:51;;;;;;;19.20;10.58;;;;;;;1.89;77.65;100910.17;1778665;78;25639;-80
2021/04/04 06:33:28;;;;;;;;;;;;;;;1.91;77.92;100918.17;1779700;79;25683;-79
2021/04/04 06:36:05;;;;;;;19.85;11.05;;;;;;;1.93;77.62;100911.16;1781639;78;25957;-79
2021/04/04 06:39:05;;;;;;;21.50;10.13;;;;;;;1.99;77.61;100913.80;1778888;78;25683;-79
2021/04/04 06:41:48;;;;;;;18.80;10.68;;;;;;;1.99;77.61;100913.80;1780465;78;26405;-79
2021/04/04 06:44:46;;;;;;;19.40;11.43;;;;;;;1.99;77.50;100904.78;1768235;79;25965;-79
2021/04/04 06:47:40;;;;;;;18.48;10.60;;;;;;;1.89;77.64;100877.95;1784393;79;25301;-79
2021/04/04 06:50:22;;;;;;;16.93;9.45;;;;;;;2.13;77.41;100909.92;1767801;79;25804;-79
2021/04/04 06:53:12;;;;;;;16.00;9.50;;;;;;;2.13;77.49;100909.09;1740446;80;25708;-79
2021/04/04 06:55:52;;;;;;;14.30;8.75;;;;;;;2.07;77.39;100904.30;1762844;80;32502;-79
2021/04/04 06:58:59;;;;;;;14.75;8.73;;;;;;;2.18;77.34;100913.05;1756905;80;25332;-79
2021/04/04 07:01:58;;;;;;;17.25;9.30;;;;;;;2.25;77.15;100912.64;1739844;80;25749;-79
2021/04/04 07:04:36;;;;;;;17.17;8.60;;;;;;;2.26;77.04;100907.84;1759685;80;25843;-78
2021/04/04 07:07:27;;;;;;;19.98;9.38;;;;;;;2.32;76.89;100910.02;1760978;80;25846;-79
2021/04/04 07:10:09;;;;;;;16.07;9.25;;;;;;;2.32;77.10;100913.45;1760099;80;26533;-79
2021/04/04 07:13:12;;;;;;;14.55;7.92;;;;;;;2.36;76.87;100917.94;1759183;80;26010;-78
2021/04/04 07:16:02;;;;;;;16.37;8.95;;;;;;;2.41;76.65;100921.87;1740097;80;25885;-79
2021/04/04 07:19:09;;;;;;;15.78;8.93;;;;;;;2.47;76.65;100923.70;1729197;81;33649;-78
2021/04/04 07:22:03;;;;;;;13.83;7.12;;;;;;;2.56;76.71;100931.66;1713028;81;25689;-79
2021/04/04 07:25:24;;;;;;;13.30;8.30;;;;;;;2.52;76.27;100925.53;1724835;81;25729;-79
2021/04/04 07:28:06;;;;;;;9.78;6.80;;;;;;;2.52;76.27;100925.53;1725144;81;25720;-79
2021/04/04 07:30:44;;;;;;;12.82;7.78;;;;;;;2.64;75.62;100938.44;1739560;80;25801;-78
2021/04/04 07:33:18;;;;;;;14.30;8.08;;;;;;;2.65;75.56;100935.42;1735873;80;25954;-78
2021/04/04 07:36:08;;;;;;;11.40;6.58;;;;;;;2.69;75.59;100934.28;1739620;80;26380;-78
2021/04/04 07:39:01;;;;;;;12.05;6.62;;;;;;;2.75;75.64;100941.61;1741014;80;25988;-79
2021/04/04 07:41:50;;;;;;;13.05;5.95;;;;;;;2.82;75.71;100939.48;1738110;80;25750;-78
2021/04/04 07:44:38;;;;;;;13.73;6.87;;;;;;;2.91;75.54;100942.73;1738501;80;25799;-78
2021/04/04 07:47:21;;;;;;;11.20;6.22;;;;;;;2.97;75.13;100937.63;1739050;80;26648;-79
2021/04/04 07:49:53;;;;;;;11.80;7.05;;;;;;;2.95;74.84;100940.33;1739445;80;26399;-79
2021/04/04 07:52:36;;;;;;;11.83;6.92;;;;;;;2.93;74.78;100943.47;1740851;79;25360;-79
2021/04/04 07:55:37;;;;;;;13.75;6.95;;;;;;;3.02;75.08;100952.35;1756534;78;25799;-79
2021/04/04 07:58:21;;;;;;;11.63;6.90;;;;;;;3.10;74.76;100944.45;1788529;78;25790;-78
2021/04/04 08:01:01;;;;;;;12.78;6.78;;;;;;;3.08;74.06;100939.88;1766958;78;27309;-75
2021/04/04 08:03:49;;;;;;;9.97;6.40;;;;;;;3.13;74.42;100942.60;1788529;78;25717;-75
2021/04/04 08:06:17;;;;;;;10.10;6.30;;;;;;;3.20;73.97;100942.09;1784690;78;26303;-75
2021/04/04 08:09:13;;;;;;;13.28;6.60;;;;;;;3.23;73.89;100934.13;1789959;78;26505;-75
2021/04/04 08:12:12;;;;;;;10.88;6.60;;;;;;;3.37;74.12;100938.37;1789037;78;25339;-75
2021/04/04 08:14:46;;;;;;;12.68;5.78;;;;;;;3.54;73.92;100939.33;1790960;78;26377;-79
2021/04/04 08:17:12;;;;;;;10.05;6.95;;;;;;;3.60;72.41;100937.25;1789043;78;25863;-74
2021/04/04 08:19:42;;;;;;;9.17;6.03;;;;;;;3.63;72.07;100939.63;1790497;78;35004;-74
2021/04/04 08:22:17;;;;;;;10.10;6.70;;;;;;;3.65;70.90;100934.71;1792850;78;34816;-74
2021/04/04 08:25:00;;;;;;;11.08;6.70;;;;;;;3.68;71.65;100931.94;1792734;78;25860;-74
2021/04/04 08:27:37;;;;;;;9.60;5.33;;;;;;;3.83;71.34;100937.79;1717162;82;25843;-75
2021/04/04 08:30:21;;;;;;;9.05;5.33;;;;;;;3.93;70.32;100936.69;1716158;82;25794;-74
2021/04/04 08:32:51;;;;;;;12.65;8.50;;;;;;;3.97;69.42;100931.65;1688411;83;25896;-75
2021/04/04 08:35:34;;;;;;;10.03;6.20;;;;;;;4.02;68.31;100924.39;1681512;83;25364;-75
2021/04/04 08:38:26;;;;;;;9.13;6.03;;;;;;;4.07;68.52;100926.19;1673820;83;25773;-75
2021/04/04 08:40:58;;;;;;;9.68;6.97;;;;;;;4.10;68.80;100927.27;1703943;83;26437;-78
2021/04/04 08:43:26;;;;;;;10.48;6.90;;;;;;;4.25;68.99;100916.75;1716377;82;25337;-77
2021/04/04 08:46:13;;;;;;;9.68;6.87;;;;;;;4.33;68.97;100904.90;1716297;82;26093;-77
2021/04/04 08:48:40;;;;;;;9.03;6.17;;;;;;;4.46;68.35;100911.31;1714876;82;25831;-74
2021/04/04 08:51:11;;;;;;;10.55;5.92;;;;;;;4.60;68.02;100909.01;1717298;82;26750;-74
2021/04/04 08:53:44;;;;;;;9.88;6.08;;;;;;;4.66;67.68;100901.63;1717198;82;25899;-80
2021/04/04 08:56:16;;;;;;;12.40;6.67;;;;;;;4.66;67.01;100900.78;1715707;82;25788;-75
2021/04/04 08:58:46;;;;;;;10.28;6.20;;;;;;;4.77;67.76;100891.74;1718435;82;25773;-75
2021/04/04 09:01:37;;;;;;;8.65;5.62;;;;;;;4.92;66.06;100882.50;1693024;82;26424;-76
2021/04/04 09:04:08;;;;;;;9.63;5.97;;;;;;;5.04;67.59;100887.55;1756459;79;25804;-79
2021/04/04 09:06:38;;;;;;;9.10;5.75;;;;;;;5.19;66.76;100885.58;1774425;78;25781;-79
2021/04/04 09:09:10;;;;;;;;;;;;;;;5.24;66.09;100884.77;1775044;79;25399;-76
2021/04/04 09:11:37;;;;;;;11.12;6.12;;;;;;;5.31;66.36;100882.52;1757769;78;25844;-74
2021/04/04 09:14:04;;;;;;;9.68;5.58;;;;;;;5.52;66.70;100882.16;1773973;79;25348;-74
2021/04/04 09:16:30;;;;;;;8.75;5.42;;;;;;;5.70;65.62;100885.09;1771988;78;26602;-78
2021/04/04 09:18:55;;;;;;;10.00;5.33;;;;;;;5.81;64.54;100882.95;1788094;78;25925;-74
2021/04/04 09:21:23;;;;;;;11.93;5.50;;;;;;;5.87;65.02;100877.75;1773761;78;25771;-73
2021/04/04 09:23:53;;;;;;;8.10;4.78;;;;;;;5.95;63.75;100883.19;1772180;78;25988;-78
2021/04/04 09:26:23;;;;;;;9.95;5.08;;;;;;;5.95;60.55;100878.81;1772591;78;25805;-78
2021/04/04 09:28:52;;;;;;;8.45;4.35;;;;;;;6.02;62.30;100881.73;1774451;78;25739;-77
2021/04/04 09:31:28;;;;;;;8.15;4.25;;;;;;;6.03;61.67;100877.36;1773464;78;25795;-73
2021/04/04 09:34:09;;;;;;;5.75;4.12;;;;;;;6.04;61.71;100873.84;1773695;78;25797;-79
2021/04/04 09:36:45;;;;;;;8.28;4.72;;;;;;;6.05;58.94;100869.80;1771811;78;26068;-73
2021/04/04 09:39:15;;;;;;;6.90;4.00;;;;;;;6.08;59.00;100869.55;1772060;78;25838;-74
2021/04/04 09:41:41;;;;;;;8.00;4.75;;;;;;;6.23;59.54;100863.14;1759191;79;25719;-75
2021/04/04 09:44:09;;;;;;;7.28;3.37;;;;;;;6.33;59.70;100861.08;1748144;79;25805;-73
2021/04/04 09:46:59;;;;;;;8.45;4.05;;;;;;;6.32;58.58;100860.74;1796407;77;25702;-73
2021/04/04 09:49:38;;;;;;;5.58;3.02;;;;;;;6.23;58.86;100862.32;1798692;77;25905;-77
2021/04/04 09:52:31;;;;;;;5.67;3.10;;;;;;;6.15;57.01;100855.62;1797635;77;25913;-76
2021/04/04 09:55:09;;;;;;;5.92;3.25;;;;;;;6.12;55.98;100861.89;1766887;79;25830;-75
2021/04/04 09:57:42;;;;;;;4.75;2.42;;;;;;;6.13;57.22;100860.92;1765813;79;25756;-72
2021/04/04 10:00:28;;;;;;;3.10;2.45;;;;;;;6.17;56.76;100853.73;1798055;77;26435;-73
2021/04/04 10:02:58;;;;;;;5.25;2.75;;;;;;;6.22;55.50;100847.70;1795964;77;25730;-75
2021/04/04 10:05:37;;;;;;;4.47;2.45;;;;;;;6.27;55.62;100853.80;1796355;77;25842;-74
2021/04/04 10:08:23;;;;;;;3.87;2.50;;;;;;;6.38;56.54;100842.91;1800380;77;25932;-76
2021/04/04 10:10:56;;;;;;;4.08;2.35;;;;;;;6.54;56.26;100836.44;1797602;77;26996;-72
2021/04/04 10:13:29;;;;;;;3.83;2.60;;;;;;;6.63;54.11;100836.98;1798601;77;25283;-77
2021/04/04 10:15:57;;;;;;;4.72;2.55;;;;;;;6.53;54.34;100837.39;1767636;79;25721;-76
2021/04/04 10:18:25;;;;;;;3.65;2.15;;;;;;;6.47;54.79;100828.34;1765764;79;25868;-76
2021/04/04 10:20:54;;;;;;;3.58;2.30;;;;;;;6.58;53.69;100833.47;1766905;79;25844;-76
2021/04/04 10:23:30;;;;;;;2.90;1.90;;;;;;;6.57;53.76;100826.61;1819724;77;25730;-76
2021/04/04 10:26:04;;;;;;;4.05;2.47;;;;;;;6.50;52.06;100822.89;1764742;79;25691;-76
2021/04/04 10:28:54;;;;;;;3.33;2.20;;;;;;;6.46;54.11;100820.19;1759076;79;25601;-75
2021/04/04 10:31:23;;;;;;;;;;;;;;;6.40;52.81;100816.32;1776239;79;25742;-75
2021/04/04 10:34:01;;;;;;;5.65;2.55;;;;;;;6.34;53.98;100821.21;1776410;78;25754;-76
2021/04/04 10:36:28;;;;;;;5.90;2.62;;;;;;;6.33;54.54;100818.25;1796130;77;25730;-76
2021/04/04 10:38:56;;;;;;;4.83;2.50;;;;;;;6.49;55.37;100811.31;1795280;77;25761;-76
2021/04/04 10:41:29;;;;;;;3.77;2.20;;;;;;;6.65;53.79;100811.69;1796655;77;25859;-76
2021/04/04 10:43:56;;;;;;;6.78;3.08;;;;;;;6.61;53.20;100809.83;1793765;77;25368;-76
2021/04/04 10:46:31;;;;;;;7.00;3.30;;;;;;;6.61;52.94;100806.42;1792096;77;25901;-76
2021/04/04 10:49:00;;;;;;;5.70;3.00;;;;;;;6.64;52.39;100800.96;1791788;77;26550;-76
2021/04/04 10:51:29;;;;;;;5.30;2.83;;;;;;;6.70;53.56;100800.92;1796244;77;26001;-76
2021/04/04 10:54:00;;;;;;;6.60;3.40;;;;;;;6.77;53.73;100798.98;1796273;77;25762;-76
2021/04/04 10:56:28;;;;;;;5.22;2.47;;;;;;;6.78;52.92;100794.13;1767381;79;25696;-76
2021/04/04 10:58:54;;;;;;;4.80;2.72;;;;;;;6.76;52.96;100790.01;1766430;79;25655;-76
2021/04/04 11:01:21;;;;;;;4.47;2.53;;;;;;;6.74;52.10;100796.65;1774368;79;25439;-75
2021/04/04 11:03:48;;;;;;;5.22;2.40;;;;;;;6.80;53.06;100790.92;1774063;79;25779;-76
2021/04/04 11:06:14;;;;;;;3.47;2.10;;;;;;;6.99;50.80;100777.20;1792472;78;25821;-76
2021/04/04 11:08:41;;;;;;;4.58;2.62;;;;;;;6.91;48.91;100779.63;1794010;77;25613;-74
2021/04/04 11:11:11;;;;;;;4.22;2.12;;;;;;;6.83;50.70;100774.27;1796056;77;25324;-74
2021/04/04 11:13:40;;;;;;;3.35;2.15;;;;;;;6.87;50.71;100772.58;1796088;77;26482;-77
2021/04/04 11:16:09;;;;;;;4.37;2.90;;;;;;;6.99;51.03;100771.18;1793859;77;25664;-78
2021/04/04 11:18:49;;;;;;;4.72;2.65;;;;;;;7.18;51.36;100769.94;1767951;79;26433;-74
2021/04/04 11:21:22;;;;;;;3.75;2.10;;;;;;;7.43;50.40;100762.60;1765323;79;25753;-77
2021/04/04 11:23:48;;;;;;;4.00;1.95;;;;;;;7.54;48.35;100761.98;1815638;77;25823;-77
2021/04/04 11:26:32;;;;;;;3.75;2.27;;;;;;;7.50;49.37;100758.48;1816711;77;26394;-76
2021/04/04 11:29:13;;;;;;;3.30;2.10;;;;;;;7.55;49.13;100759.72;1816942;77;25815;-78
2021/04/04 11:31:42;;;;;;;3.77;1.95;;;;;;;7.49;48.26;100756.85;1766596;79;25345;-78
2021/04/04 11:34:39;;;;;;;5.92;3.02;;;;;;;7.43;48.88;100750.41;1777271;78;26576;-77
2021/04/04 11:37:18;;;;;;;4.90;2.50;;;;;;;7.46;49.81;100744.12;1778779;78;25750;-78
2021/04/04 11:40:12;;;;;;;5.05;2.95;;;;;;;7.64;48.03;100748.16;1777091;78;25809;-76
2021/04/04 11:42:39;;;;;;;4.50;2.50;;;;;;;7.51;47.68;100740.64;1775582;78;26479;-77
2021/04/04 11:45:06;;;;;;;6.20;2.60;;;;;;;7.58;48.44;100737.82;1779132;78;25679;-77
2021/04/04 11:47:32;;;;;;;4.97;2.55;;;;;;;7.64;47.29;100737.30;1777540;78;25786;-77
2021/04/04 11:49:58;;;;;;;4.57;2.77;;;;;;;7.71;47.04;100734.47;1778341;78;30690;-77
2021/04/04 11:52:30;;;;;;;5.43;2.80;;;;;;;7.66;46.27;100732.76;1778954;78;25797;-77
2021/04/04 11:54:56;;;;;;;4.78;2.47;;;;;;;7.50;46.41;100724.22;1778333;78;25818;-77
2021/04/04 11:57:31;;;;;;;5.12;2.60;;;;;;;7.40;47.40;100725.98;1777377;78;25812;-77
2021/04/04 12:00:12;;;;;;;3.40;2.22;;;;;;;7.36;46.47;100722.48;1779253;78;25779;-74
2021/04/04 12:02:50;;;;;;;5.22;2.33;;;;;;;7.26;45.51;100719.39;1780649;78;25715;-77